CMN5 weather

Manic-5
Quebec, Canada

Public forecast

Using degrees Celsius for public forecast. Weather courtesy of forecast.io.

METAR (pilot weather report)

Closest report is Baie Comeau Airport, 94.7 nm (175.4 km) SSE. Retrieved 2019/05/21 04:00 UTC (28 minutes ago):

CYBC 210400Z AUTO 08014G19KT 4SM -RA BR BKN009 OVC017 05/05 A2966 RMK SLP045

TAF (pilot weather forecast)

Closest forecast is Baie Comeau Airport, 94.7 nm (175.4 km) SSE. Retrieved 2019/05/21 02:00 UTC (2 hours ago):

TAF CYBC 210138Z 2102/2114 08015G25KT 6SM BR SCT005 OVC015 TEMPO 2102/2114 3SM -RA BR BKN005 OVC015 BECMG 2107/2109 08018G28KT RMK FCST BASED ON AUTO OBS. NXT FCST BY 210800Z